Time;durP1;ratioP1;P1;durP2;ratioP2;P2;SDS_P1;SDS_P2;PMS_P1;PMS_P2;Temp;Humidity;BMP_temperature;BMP_pressure;BME280_temperature;BME280_humidity;BME280_pressure;Samples;Min_cycle;Max_cycle;Signal;HPM_P1;HPM_P2
2023/12/07 00:01:52;;;;;;;;;;;;;;;;;;2215620;58;2207;-19
2023/12/07 00:04:22;;;;;;;;;;;;;;;;;;2216332;66;1963;-19
2023/12/07 00:06:52;;;;;;;;;;;;;;;;;;2215937;58;2632;-19
2023/12/07 00:09:23;;;;;;;;;;;;;;;;;;2215933;59;2214;-19
2023/12/07 00:11:53;;;;;;;;;;;;;;;;;;2215858;66;2464;-19
2023/12/07 00:14:23;;;;;;;;;;;;;;;;;;2215942;59;2350;-19
2023/12/07 00:16:54;;;;;;;;;;;;;;;;;;2212075;66;2352;-19
2023/12/07 00:19:24;;;;;;;;;;;;;;;;;;2215789;60;1647;-19
2023/12/07 00:21:55;;;;;;;;;;;;;;;;;;2215711;58;2098;-19
2023/12/07 00:24:25;;;;;;;;;;;;;;;;;;2212361;66;2192;-19
2023/12/07 00:26:56;;;;;;;;;;;;;;;;;;2209196;66;2432;-19
2023/12/07 00:29:26;;;;;;;;;;;;;;;;;;2214862;58;2347;-19
2023/12/07 00:31:56;;;;;;;;;;;;;;;;;;2208599;59;2079;-20
2023/12/07 00:34:26;;;;;;;;;;;;;;;;;;2212481;66;2454;-19
2023/12/07 00:36:56;;;;;;;;;;;;;;;;;;2211065;59;2185;-19
2023/12/07 00:39:27;;;;;;;;;;;;;;;;;;2208481;66;2245;-19
2023/12/07 00:41:57;;;;;;;;;;;;;;;;;;2214137;66;2421;-19
2023/12/07 00:44:27;;;;;;;;;;;;;;;;;;2213247;66;2235;-19
2023/12/07 00:46:57;;;;;;;;;;;;;;;;;;2210325;66;2737;-19
2023/12/07 00:49:28;;;;;;;;;;;;;;;;;;2214198;66;1775;-19
2023/12/07 00:51:58;;;;;;;;;;;;;;;;;;2214751;66;2507;-19
2023/12/07 00:54:28;;;;;;;;;;;;;;;;;;2214188;58;1886;-19
2023/12/07 00:56:59;;;;;;;;;;;;;;;;;;2213991;58;3098;-19
2023/12/07 00:59:33;;;;;;;;;;;;;;;;;;2215522;66;1812;-19
2023/12/07 01:02:04;;;;;;;;;;;;;;;;;;2211779;58;2181;-19
2023/12/07 01:04:35;;;;;;;;;;;;;;;;;;2216143;66;1822;-19
2023/12/07 01:07:05;;;;;;;;;;;;;;;;;;2215460;58;1938;-19
2023/12/07 01:09:36;;;;;;;;;;;;;;;;;;2210974;63;2292;-19
2023/12/07 01:12:06;;;;;;;;;;;;;;;;;;2214737;58;2857;-19
2023/12/07 01:14:36;;;;;;;;;;;;;;;;;;2215028;58;2618;-19
2023/12/07 01:17:06;;;;;;;;;;;;;;;;;;2215797;58;2493;-19
2023/12/07 01:19:37;;;;;;;;;;;;;;;;;;2215258;58;2111;-19
2023/12/07 01:22:07;;;;;;;;;;;;;;;;;;2215845;66;1888;-19
2023/12/07 01:24:37;;;;;;;;;;;;;;;;;;2214797;59;2501;-19
2023/12/07 01:27:07;;;;;;;;;;;;;;;;;;2215664;59;2460;-19
2023/12/07 01:29:38;;;;;;;;;;;;;;;;;;2214683;58;2231;-19
2023/12/07 01:32:08;;;;;;;;;;;;;;;;;;2216826;58;1570;-19
2023/12/07 01:34:39;;;;;;;;;;;;;;;;;;2215004;66;1894;-19
2023/12/07 01:37:09;;;;;;;;;;;;;;;;;;2215903;66;1894;-18
2023/12/07 01:39:41;;;;;;;;;;;;;;;;;;2211849;66;2286;-18
2023/12/07 01:42:12;;;;;;;;;;;;;;;;;;2211874;66;1762;-19
2023/12/07 01:44:42;;;;;;;;;;;;;;;;;;2209521;66;2294;-19
2023/12/07 01:47:13;;;;;;;;;;;;;;;;;;2212488;66;2394;-19
2023/12/07 01:49:43;;;;;;;;;;;;;;;;;;2215333;58;2099;-19
2023/12/07 01:52:14;;;;;;;;;;;;;;;;;;2213013;66;2430;-19
2023/12/07 01:54:44;;;;;;;;;;;;;;;;;;2212049;59;2727;-19
2023/12/07 01:57:14;;;;;;;;;;;;;;;;;;2215976;66;1778;-19
2023/12/07 01:59:44;;;;;;;;;;;;;;;;;;2215252;59;1944;-19
2023/12/07 02:02:15;;;;;;;;;;;;;;;;;;2213045;58;2345;-19
2023/12/07 02:04:45;;;;;;;;;;;;;;;;;;2215618;66;1803;-18
2023/12/07 02:07:15;;;;;;;;;;;;;;;;;;2212503;58;2192;-19
2023/12/07 02:09:46;;;;;;;;;;;;;;;;;;2215384;62;1747;-19
2023/12/07 02:12:16;;;;;;;;;;;;;;;;;;2216834;66;1829;-19
2023/12/07 02:14:46;;;;;;;;;;;;;;;;;;2216580;58;1872;-19
2023/12/07 02:17:42;;;;;;;;;;;;;;;;;;2210236;66;2402;-19
2023/12/07 02:20:18;;;;;;;;;;;;;;;;;;2214999;61;2132;-19
2023/12/07 02:22:52;;;;;;;;;;;;;;;;;;2216192;58;2040;-19
2023/12/07 02:25:35;;;;;;;;;;;;;;;;;;2213141;66;2171;-19
2023/12/07 02:28:05;;;;;;;;;;;;;;;;;;2215021;58;2390;-19
2023/12/07 02:30:36;;;;;;;;;;;;;;;;;;2213112;59;2385;-19
2023/12/07 02:33:06;;;;;;;;;;;;;;;;;;2216086;59;1627;-19
2023/12/07 02:35:37;;;;;;;;;;;;;;;;;;2212532;66;1847;-19
2023/12/07 02:38:07;;;;;;;;;;;;;;;;;;2216027;66;1844;-19
2023/12/07 02:40:38;;;;;;;;;;;;;;;;;;2212280;66;2056;-19
2023/12/07 02:43:09;;;;;;;;;;;;;;;;;;2215597;59;2461;-18
2023/12/07 02:45:39;;;;;;;;;;;;;;;;;;2215954;66;2463;-19
2023/12/07 02:48:09;;;;;;;;;;;;;;;;;;2215668;66;1967;-19
2023/12/07 02:50:40;;;;;;;;;;;;;;;;;;2212724;59;2242;-18
2023/12/07 02:53:10;;;;;;;;;;;;;;;;;;2215660;66;1832;-19
2023/12/07 02:55:40;;;;;;;;;;;;;;;;;;2211614;59;1970;-18
2023/12/07 02:58:11;;;;;;;;;;;;;;;;;;2215634;59;1745;-19
2023/12/07 03:00:41;;;;;;;;;;;;;;;;;;2215615;66;2270;-19
2023/12/07 03:03:11;;;;;;;;;;;;;;;;;;2212726;59;2126;-19
2023/12/07 03:05:41;;;;;;;;;;;;;;;;;;2215763;66;2516;-18
2023/12/07 03:08:12;;;;;;;;;;;;;;;;;;2215363;59;2750;-19
2023/12/07 03:10:42;;;;;;;;;;;;;;;;;;2215654;66;1711;-19
2023/12/07 03:13:12;;;;;;;;;;;;;;;;;;2215988;66;1274;-18
2023/12/07 03:15:42;;;;;;;;;;;;;;;;;;2216461;66;1271;-19
2023/12/07 03:18:13;;;;;;;;;;;;;;;;;;2213439;66;1400;-19
2023/12/07 03:20:43;;;;;;;;;;;;;;;;;;2215110;58;2571;-19
2023/12/07 03:23:13;;;;;;;;;;;;;;;;;;2212481;66;1405;-19
2023/12/07 03:25:44;;;;;;;;;;;;;;;;;;2216805;66;1282;-19
2023/12/07 03:28:14;;;;;;;;;;;;;;;;;;2212624;59;2470;-18
2023/12/07 03:30:44;;;;;;;;;;;;;;;;;;2216309;58;2342;-19
2023/12/07 03:33:14;;;;;;;;;;;;;;;;;;2217127;58;1394;-19
2023/12/07 03:35:45;;;;;;;;;;;;;;;;;;2209296;66;1603;-19
2023/12/07 03:38:15;;;;;;;;;;;;;;;;;;2215896;59;1210;-19
2023/12/07 03:40:47;;;;;;;;;;;;;;;;;;2215943;66;1089;-19
2023/12/07 03:43:19;;;;;;;;;;;;;;;;;;2216710;66;1537;-18
2023/12/07 03:45:50;;;;;;;;;;;;;;;;;;2215826;66;1439;-19
2023/12/07 03:48:20;;;;;;;;;;;;;;;;;;2212768;66;1943;-19
2023/12/07 03:50:50;;;;;;;;;;;;;;;;;;2212124;66;1547;-19
2023/12/07 03:53:20;;;;;;;;;;;;;;;;;;2213014;66;1832;-19
2023/12/07 03:55:51;;;;;;;;;;;;;;;;;;2216145;58;1256;-19
2023/12/07 03:58:21;;;;;;;;;;;;;;;;;;2216340;66;1419;-19
2023/12/07 04:00:51;;;;;;;;;;;;;;;;;;2215770;66;1378;-19
2023/12/07 04:03:21;;;;;;;;;;;;;;;;;;2213830;59;2210;-18
2023/12/07 04:05:51;;;;;;;;;;;;;;;;;;2216245;66;1363;-19
2023/12/07 04:08:22;;;;;;;;;;;;;;;;;;2216495;58;1987;-19
2023/12/07 04:10:52;;;;;;;;;;;;;;;;;;2215329;66;1565;-19
2023/12/07 04:13:22;;;;;;;;;;;;;;;;;;2212943;66;1315;-19
2023/12/07 04:15:52;;;;;;;;;;;;;;;;;;2211685;59;1590;-19
2023/12/07 04:18:23;;;;;;;;;;;;;;;;;;2215814;66;1713;-18
2023/12/07 04:20:53;;;;;;;;;;;;;;;;;;2214648;66;1192;-19
2023/12/07 04:23:24;;;;;;;;;;;;;;;;;;2216629;66;1990;-19
2023/12/07 04:25:54;;;;;;;;;;;;;;;;;;2215382;66;1486;-19
2023/12/07 04:28:24;;;;;;;;;;;;;;;;;;2216836;58;1970;-19
2023/12/07 04:30:55;;;;;;;;;;;;;;;;;;2211944;59;2391;-18
2023/12/07 04:33:25;;;;;;;;;;;;;;;;;;2216437;58;1471;-19
2023/12/07 04:35:55;;;;;;;;;;;;;;;;;;2216111;66;1156;-19
2023/12/07 04:38:26;;;;;;;;;;;;;;;;;;2216764;66;1363;-20
2023/12/07 04:40:56;;;;;;;;;;;;;;;;;;2211691;66;1324;-18
2023/12/07 04:43:26;;;;;;;;;;;;;;;;;;2217391;66;1287;-18
2023/12/07 04:45:57;;;;;;;;;;;;;;;;;;2216409;66;1274;-18
2023/12/07 04:48:27;;;;;;;;;;;;;;;;;;2215338;66;1944;-18
2023/12/07 04:50:57;;;;;;;;;;;;;;;;;;2208752;66;1658;-20
2023/12/07 04:53:27;;;;;;;;;;;;;;;;;;2212348;60;1155;-19
2023/12/07 04:55:58;;;;;;;;;;;;;;;;;;2212034;59;1326;-18
2023/12/07 04:58:28;;;;;;;;;;;;;;;;;;2213138;66;1665;-18
2023/12/07 05:00:59;;;;;;;;;;;;;;;;;;2215534;66;1246;-18
2023/12/07 05:03:29;;;;;;;;;;;;;;;;;;2212980;59;2100;-18
2023/12/07 05:06:00;;;;;;;;;;;;;;;;;;2215665;59;1491;-18
2023/12/07 05:08:31;;;;;;;;;;;;;;;;;;2216700;58;1929;-18
2023/12/07 05:11:01;;;;;;;;;;;;;;;;;;2211916;66;1449;-18
2023/12/07 05:13:33;;;;;;;;;;;;;;;;;;2216210;66;1562;-19
2023/12/07 05:16:04;;;;;;;;;;;;;;;;;;2215291;58;1597;-18
2023/12/07 05:18:34;;;;;;;;;;;;;;;;;;2212847;66;1462;-18
2023/12/07 05:21:04;;;;;;;;;;;;;;;;;;2212155;66;1512;-18
2023/12/07 05:23:35;;;;;;;;;;;;;;;;;;2215667;66;1305;-18
2023/12/07 05:26:05;;;;;;;;;;;;;;;;;;2215191;66;1459;-18
2023/12/07 05:28:36;;;;;;;;;;;;;;;;;;2215918;58;1962;-18
2023/12/07 05:31:06;;;;;;;;;;;;;;;;;;2216122;59;2481;-18
2023/12/07 05:33:37;;;;;;;;;;;;;;;;;;2212729;59;1201;-18
2023/12/07 05:36:07;;;;;;;;;;;;;;;;;;2212831;66;1585;-18
2023/12/07 05:38:37;;;;;;;;;;;;;;;;;;2214212;66;1291;-18
2023/12/07 05:41:08;;;;;;;;;;;;;;;;;;2216837;66;1628;-28
2023/12/07 05:43:40;;;;;;;;;;;;;;;;;;2213183;59;1243;-18
2023/12/07 05:46:10;;;;;;;;;;;;;;;;;;2213066;66;1789;-19
2023/12/07 05:48:41;;;;;;;;;;;;;;;;;;2215641;66;2000;-19
2023/12/07 05:51:13;;;;;;;;;;;;;;;;;;2213245;66;1458;-18
2023/12/07 05:53:44;;;;;;;;;;;;;;;;;;2212703;66;1277;-18
2023/12/07 05:56:17;;;;;;;;;;;;;;;;;;2204920;58;1697;-24
2023/12/07 05:58:48;;;;;;;;;;;;;;;;;;2196006;66;2002;-24
2023/12/07 06:01:18;;;;;;;;;;;;;;;;;;2196956;59;2242;-24
2023/12/07 06:03:48;;;;;;;;;;;;;;;;;;2198043;59;2390;-24
2023/12/07 06:06:21;;;;;;;;;;;;;;;;;;2197179;67;1879;-24
2023/12/07 06:08:51;;;;;;;;;;;;;;;;;;2197413;59;2341;-24
2023/12/07 06:11:21;;;;;;;;;;;;;;;;;;2196391;59;2435;-24
2023/12/07 06:13:52;;;;;;;;;;;;;;;;;;2197467;66;1847;-24
2023/12/07 06:16:22;;;;;;;;;;;;;;;;;;2197457;59;1745;-24
2023/12/07 06:18:52;;;;;;;;;;;;;;;;;;2197309;59;2133;-24
2023/12/07 06:21:22;;;;;;;;;;;;;;;;;;2197854;66;2363;-24
2023/12/07 06:23:53;;;;;;;;;;;;;;;;;;2196925;67;3602;-24
2023/12/07 06:26:23;;;;;;;;;;;;;;;;;;2197446;59;2443;-24
2023/12/07 06:28:53;;;;;;;;;;;;;;;;;;2193303;59;2627;-24
2023/12/07 06:31:23;;;;;;;;;;;;;;;;;;2196955;59;1670;-24
2023/12/07 06:33:54;;;;;;;;;;;;;;;;;;2197499;59;1876;-24
2023/12/07 06:36:25;;;;;;;;;;;;;;;;;;2198058;67;1652;-24
2023/12/07 06:38:56;;;;;;;;;;;;;;;;;;2195551;66;1802;-24
2023/12/07 06:41:26;;;;;;;;;;;;;;;;;;2198726;59;2506;-24
2023/12/07 06:43:56;;;;;;;;;;;;;;;;;;2195950;59;3287;-24
2023/12/07 06:46:26;;;;;;;;;;;;;;;;;;2197784;67;2205;-24
2023/12/07 06:48:56;;;;;;;;;;;;;;;;;;2196868;67;2407;-24
2023/12/07 06:51:27;;;;;;;;;;;;;;;;;;2197908;67;2245;-24
2023/12/07 06:53:57;;;;;;;;;;;;;;;;;;2196863;67;1754;-24
2023/12/07 06:56:27;;;;;;;;;;;;;;;;;;2197186;59;2572;-24
2023/12/07 06:58:57;;;;;;;;;;;;;;;;;;2196387;66;2223;-23
2023/12/07 07:01:27;;;;;;;;;;;;;;;;;;2197265;59;2160;-24
2023/12/07 07:03:58;;;;;;;;;;;;;;;;;;2196964;59;2114;-24
2023/12/07 07:06:28;;;;;;;;;;;;;;;;;;2197804;59;1779;-24
2023/12/07 07:08:59;;;;;;;;;;;;;;;;;;2196732;59;2346;-24
2023/12/07 07:11:29;;;;;;;;;;;;;;;;;;2197736;67;2629;-24
2023/12/07 07:14:00;;;;;;;;;;;;;;;;;;2196702;59;2567;-24
2023/12/07 07:16:30;;;;;;;;;;;;;;;;;;2197703;67;2639;-24
2023/12/07 07:19:01;;;;;;;;;;;;;;;;;;2197215;66;2238;-24
2023/12/07 07:21:31;;;;;;;;;;;;;;;;;;2197540;66;1874;-24
2023/12/07 07:24:02;;;;;;;;;;;;;;;;;;2195926;59;2048;-24
2023/12/07 07:26:32;;;;;;;;;;;;;;;;;;2196438;66;1849;-24
2023/12/07 07:29:03;;;;;;;;;;;;;;;;;;2195501;59;2485;-24
2023/12/07 07:31:34;;;;;;;;;;;;;;;;;;2193591;59;1642;-24
2023/12/07 07:34:05;;;;;;;;;;;;;;;;;;2196777;59;2414;-23
2023/12/07 07:36:35;;;;;;;;;;;;;;;;;;2197197;59;1898;-24
2023/12/07 07:39:07;;;;;;;;;;;;;;;;;;2196570;66;3039;-24
2023/12/07 07:41:38;;;;;;;;;;;;;;;;;;2197603;67;1797;-24
2023/12/07 07:44:08;;;;;;;;;;;;;;;;;;2196766;66;1975;-24
2023/12/07 07:46:40;;;;;;;;;;;;;;;;;;2197645;59;1830;-24
2023/12/07 07:49:10;;;;;;;;;;;;;;;;;;2196035;67;2206;-24
2023/12/07 07:51:40;;;;;;;;;;;;;;;;;;2199804;67;2147;-24
2023/12/07 07:54:10;;;;;;;;;;;;;;;;;;2198094;59;2343;-24
2023/12/07 07:56:42;;;;;;;;;;;;;;;;;;2197018;59;1884;-24
2023/12/07 07:59:13;;;;;;;;;;;;;;;;;;2196962;67;2321;-23
2023/12/07 08:01:44;;;;;;;;;;;;;;;;;;2198519;59;1749;-24
2023/12/07 08:04:15;;;;;;;;;;;;;;;;;;2197673;59;3049;-23
2023/12/07 08:06:45;;;;;;;;;;;;;;;;;;2197365;67;1878;-24
2023/12/07 08:09:16;;;;;;;;;;;;;;;;;;2196338;59;2102;-23
2023/12/07 08:11:46;;;;;;;;;;;;;;;;;;2195994;59;2115;-23
2023/12/07 08:14:16;;;;;;;;;;;;;;;;;;2197683;59;1819;-23
2023/12/07 08:16:46;;;;;;;;;;;;;;;;;;2197221;67;2544;-23
2023/12/07 08:19:16;;;;;;;;;;;;;;;;;;2196147;59;1866;-24
2023/12/07 08:21:47;;;;;;;;;;;;;;;;;;2197139;59;2188;-23
2023/12/07 08:24:17;;;;;;;;;;;;;;;;;;2197132;59;2570;-24
2023/12/07 08:26:47;;;;;;;;;;;;;;;;;;2195908;59;2138;-24
2023/12/07 08:29:17;;;;;;;;;;;;;;;;;;2198577;59;2204;-24
2023/12/07 08:31:48;;;;;;;;;;;;;;;;;;2201422;59;1267;-24
2023/12/07 08:34:18;;;;;;;;;;;;;;;;;;2201015;59;1127;-24
2023/12/07 08:36:48;;;;;;;;;;;;;;;;;;2197042;67;1313;-24
2023/12/07 08:39:19;;;;;;;;;;;;;;;;;;2196752;67;1217;-24
2023/12/07 08:41:49;;;;;;;;;;;;;;;;;;2197932;59;1594;-24
2023/12/07 08:44:19;;;;;;;;;;;;;;;;;;2197480;67;1460;-24
2023/12/07 08:46:49;;;;;;;;;;;;;;;;;;2197589;67;1304;-24
2023/12/07 08:49:20;;;;;;;;;;;;;;;;;;2196468;67;1953;-24
2023/12/07 08:51:50;;;;;;;;;;;;;;;;;;2196984;66;1511;-24
2023/12/07 08:54:21;;;;;;;;;;;;;;;;;;2197605;67;1631;-24
2023/12/07 08:56:51;;;;;;;;;;;;;;;;;;2197809;59;1406;-24
2023/12/07 08:59:21;;;;;;;;;;;;;;;;;;2196003;59;1219;-24
2023/12/07 09:01:51;;;;;;;;;;;;;;;;;;2197003;59;1276;-24
2023/12/07 09:04:22;;;;;;;;;;;;;;;;;;2196136;59;2646;-24
2023/12/07 09:06:52;;;;;;;;;;;;;;;;;;2197245;66;1690;-24
2023/12/07 09:09:23;;;;;;;;;;;;;;;;;;2196682;59;1952;-25
2023/12/07 09:11:53;;;;;;;;;;;;;;;;;;2196816;59;2075;-24
2023/12/07 09:14:24;;;;;;;;;;;;;;;;;;2195946;59;2092;-25
2023/12/07 09:16:54;;;;;;;;;;;;;;;;;;2197011;59;2078;-25
2023/12/07 09:19:24;;;;;;;;;;;;;;;;;;2197330;67;1604;-25
2023/12/07 09:21:54;;;;;;;;;;;;;;;;;;2197404;59;2097;-24
2023/12/07 09:24:25;;;;;;;;;;;;;;;;;;2197261;59;2201;-24
2023/12/07 09:26:56;;;;;;;;;;;;;;;;;;2195640;58;2121;-25
2023/12/07 09:29:27;;;;;;;;;;;;;;;;;;2194794;59;2190;-25
2023/12/07 09:31:57;;;;;;;;;;;;;;;;;;2197668;59;1338;-27
2023/12/07 09:34:27;;;;;;;;;;;;;;;;;;2196578;66;1594;-24
2023/12/07 09:37:07;;;;;;;;;;;;;;;;;;2197471;59;1684;-25
2023/12/07 09:39:37;;;;;;;;;;;;;;;;;;2196766;59;1590;-25
2023/12/07 09:42:08;;;;;;;;;;;;;;;;;;2194795;58;2045;-25
2023/12/07 09:44:38;;;;;;;;;;;;;;;;;;2196772;66;1301;-25
2023/12/07 09:47:11;;;;;;;;;;;;;;;;;;2195676;59;1995;-25
2023/12/07 09:49:41;;;;;;;;;;;;;;;;;;2197252;67;1735;-25
2023/12/07 09:52:13;;;;;;;;;;;;;;;;;;2195363;59;2226;-25
2023/12/07 09:54:44;;;;;;;;;;;;;;;;;;2197004;59;2428;-25
2023/12/07 09:57:15;;;;;;;;;;;;;;;;;;2196377;64;1836;-25
2023/12/07 09:59:45;;;;;;;;;;;;;;;;;;2197110;59;2125;-25
2023/12/07 10:02:16;;;;;;;;;;;;;;;;;;2197096;59;2516;-25
2023/12/07 10:04:46;;;;;;;;;;;;;;;;;;2194326;59;1960;-24
2023/12/07 10:07:26;;;;;;;;;;;;;;;;;;2195060;59;2009;-25
2023/12/07 10:09:56;;;;;;;;;;;;;;;;;;2196586;67;2571;-25
2023/12/07 10:12:27;;;;;;;;;;;;;;;;;;2196656;66;2427;-25
2023/12/07 10:14:58;;;;;;;;;;;;;;;;;;2193269;58;3047;-25
2023/12/07 10:17:47;;;;;;;;;;;;;;;;;;2193058;59;3258;-25
2023/12/07 10:20:18;;;;;;;;;;;;;;;;;;2191506;59;2037;-25
2023/12/07 10:22:48;;;;;;;;;;;;;;;;;;2197099;59;1996;-25
2023/12/07 10:25:21;;;;;;;;;;;;;;;;;;2195287;58;3109;-25
2023/12/07 10:27:51;;;;;;;;;;;;;;;;;;2196320;59;2487;-25
2023/12/07 10:30:25;;;;;;;;;;;;;;;;;;2195659;59;2907;-25
2023/12/07 10:32:55;;;;;;;;;;;;;;;;;;2197097;59;2513;-25
2023/12/07 10:35:25;;;;;;;;;;;;;;;;;;2195303;59;2305;-25
2023/12/07 10:37:56;;;;;;;;;;;;;;;;;;2196784;67;1841;-25
2023/12/07 10:40:26;;;;;;;;;;;;;;;;;;2194015;59;2269;-25
2023/12/07 10:42:57;;;;;;;;;;;;;;;;;;2201058;54;2607;-17
2023/12/07 10:45:29;;;;;;;;;;;;;;;;;;2214554;58;2445;-17
2023/12/07 10:48:07;;;;;;;;;;;;;;;;;;2214588;58;2440;-17
2023/12/07 10:50:43;;;;;;;;;;;;;;;;;;2214315;66;1758;-17
2023/12/07 10:53:20;;;;;;;;;;;;;;;;;;2212987;58;2369;-17
2023/12/07 10:55:52;;;;;;;;;;;;;;;;;;2211614;58;2450;-18
2023/12/07 10:58:25;;;;;;;;;;;;;;;;;;2212609;58;2399;-18
2023/12/07 11:00:56;;;;;;;;;;;;;;;;;;2207010;58;3066;-17
2023/12/07 11:03:27;;;;;;;;;;;;;;;;;;2213983;59;2169;-17
2023/12/07 11:05:57;;;;;;;;;;;;;;;;;;2214066;58;2007;-18
2023/12/07 11:08:32;;;;;;;;;;;;;;;;;;2213719;58;1912;-18
2023/12/07 11:11:03;;;;;;;;;;;;;;;;;;2213398;66;1775;-17
2023/12/07 11:13:35;;;;;;;;;;;;;;;;;;2212096;58;2436;-18
2023/12/07 11:16:05;;;;;;;;;;;;;;;;;;2213251;58;1974;-18
2023/12/07 11:18:36;;;;;;;;;;;;;;;;;;2211991;58;2101;-18
2023/12/07 11:21:06;;;;;;;;;;;;;;;;;;2213547;66;2398;-18
2023/12/07 11:23:36;;;;;;;;;;;;;;;;;;2213000;58;2053;-18
2023/12/07 11:26:07;;;;;;;;;;;;;;;;;;2214485;58;2318;-18
2023/12/07 11:28:38;;;;;;;;;;;;;;;;;;2217066;58;2710;-18
2023/12/07 11:31:09;;;;;;;;;;;;;;;;;;2213865;59;2623;-18
2023/12/07 11:33:40;;;;;;;;;;;;;;;;;;2215457;58;1898;-18
2023/12/07 11:36:12;;;;;;;;;;;;;;;;;;2215118;58;1754;-18
2023/12/07 11:39:01;;;;;;;;;;;;;;;;;;2215275;58;2335;-18
2023/12/07 11:41:34;;;;;;;;;;;;;;;;;;2213212;58;2658;-18
2023/12/07 11:44:05;;;;;;;;;;;;;;;;;;2215128;59;1850;-19
2023/12/07 11:46:35;;;;;;;;;;;;;;;;;;2214341;58;3232;-18
2023/12/07 11:49:10;;;;;;;;;;;;;;;;;;2214928;59;2451;-22
2023/12/07 11:51:40;;;;;;;;;;;;;;;;;;2215330;58;2009;-18
2023/12/07 11:54:11;;;;;;;;;;;;;;;;;;2214710;58;2788;-18
2023/12/07 11:56:41;;;;;;;;;;;;;;;;;;2215380;66;1888;-19
2023/12/07 11:59:12;;;;;;;;;;;;;;;;;;2215124;58;1994;-20
2023/12/07 12:01:46;;;;;;;;;;;;;;;;;;2214489;59;2551;-19
2023/12/07 12:04:17;;;;;;;;;;;;;;;;;;2215025;58;2569;-19
2023/12/07 12:06:47;;;;;;;;;;;;;;;;;;2215907;66;1505;-19
2023/12/07 12:09:17;;;;;;;;;;;;;;;;;;2215154;58;3609;-19
2023/12/07 12:11:48;;;;;;;;;;;;;;;;;;2215542;59;2639;-18
2023/12/07 12:14:18;;;;;;;;;;;;;;;;;;2214674;58;2245;-18
2023/12/07 12:16:49;;;;;;;;;;;;;;;;;;2214554;58;2211;-18
2023/12/07 12:19:19;;;;;;;;;;;;;;;;;;2214058;59;1884;-17
2023/12/07 12:21:50;;;;;;;;;;;;;;;;;;2216238;58;1681;-17
2023/12/07 12:24:20;;;;;;;;;;;;;;;;;;2215499;58;2481;-18
2023/12/07 12:26:50;;;;;;;;;;;;;;;;;;2215285;58;2688;-18
2023/12/07 12:29:22;;;;;;;;;;;;;;;;;;2213436;58;2641;-18
2023/12/07 12:31:52;;;;;;;;;;;;;;;;;;2215257;58;2724;-17
2023/12/07 12:34:23;;;;;;;;;;;;;;;;;;2214885;58;2668;-18
2023/12/07 12:36:57;;;;;;;;;;;;;;;;;;2214545;66;2730;-18
2023/12/07 12:39:29;;;;;;;;;;;;;;;;;;2213430;58;2521;-19
2023/12/07 12:42:00;;;;;;;;;;;;;;;;;;2213928;58;2134;-19
2023/12/07 12:44:31;;;;;;;;;;;;;;;;;;2214298;58;2536;-19
2023/12/07 12:47:01;;;;;;;;;;;;;;;;;;2212265;58;2458;-19
2023/12/07 12:49:36;;;;;;;;;;;;;;;;;;2212164;58;2739;-19
2023/12/07 12:52:09;;;;;;;;;;;;;;;;;;2214485;66;1927;-19
2023/12/07 12:54:42;;;;;;;;;;;;;;;;;;2213648;58;2493;-19
2023/12/07 12:57:13;;;;;;;;;;;;;;;;;;2213695;66;2017;-19
2023/12/07 12:59:48;;;;;;;;;;;;;;;;;;2214878;58;2125;-19
2023/12/07 13:02:19;;;;;;;;;;;;;;;;;;2213294;58;2225;-20
2023/12/07 13:04:49;;;;;;;;;;;;;;;;;;2215741;58;3907;-19
2023/12/07 13:07:20;;;;;;;;;;;;;;;;;;2214260;58;2601;-19
2023/12/07 13:09:50;;;;;;;;;;;;;;;;;;2214894;58;2573;-19
2023/12/07 13:12:22;;;;;;;;;;;;;;;;;;2214083;58;2496;-19
2023/12/07 13:14:52;;;;;;;;;;;;;;;;;;2215233;58;2010;-19
2023/12/07 13:17:24;;;;;;;;;;;;;;;;;;2214216;66;2444;-19
2023/12/07 13:19:54;;;;;;;;;;;;;;;;;;2215325;66;1962;-19
2023/12/07 13:22:24;;;;;;;;;;;;;;;;;;2214186;58;2591;-19
2023/12/07 13:24:54;;;;;;;;;;;;;;;;;;2215145;58;2122;-19
2023/12/07 13:27:25;;;;;;;;;;;;;;;;;;2214789;59;2860;-19
2023/12/07 13:29:55;;;;;;;;;;;;;;;;;;2215066;58;2833;-19
2023/12/07 13:32:25;;;;;;;;;;;;;;;;;;2214754;58;2509;-19
2023/12/07 13:34:55;;;;;;;;;;;;;;;;;;2214301;66;2465;-19
2023/12/07 13:37:25;;;;;;;;;;;;;;;;;;2213873;58;2365;-19
2023/12/07 13:39:57;;;;;;;;;;;;;;;;;;2215732;58;2352;-19
2023/12/07 13:42:27;;;;;;;;;;;;;;;;;;2213932;58;1856;-19
2023/12/07 13:45:00;;;;;;;;;;;;;;;;;;2214364;58;2255;-19
2023/12/07 13:47:31;;;;;;;;;;;;;;;;;;2213947;58;2063;-19
2023/12/07 13:50:03;;;;;;;;;;;;;;;;;;2215219;66;2426;-19
2023/12/07 13:52:33;;;;;;;;;;;;;;;;;;2215062;58;2454;-19
2023/12/07 13:55:13;;;;;;;;;;;;;;;;;;2214952;58;1773;-19
2023/12/07 13:57:43;;;;;;;;;;;;;;;;;;2211064;58;2706;-18
2023/12/07 14:00:13;;;;;;;;;;;;;;;;;;2210346;58;2681;-17
2023/12/07 14:03:03;;;;;;;;;;;;;;;;;;2214166;58;2566;-17
2023/12/07 14:05:34;;;;;;;;;;;;;;;;;;2214526;58;2217;-17
2023/12/07 14:08:04;;;;;;;;;;;;;;;;;;2211637;58;1976;-17
2023/12/07 14:10:34;;;;;;;;;;;;;;;;;;2213899;58;2927;-17
2023/12/07 14:13:04;;;;;;;;;;;;;;;;;;2215539;58;3546;-17
2023/12/07 14:15:35;;;;;;;;;;;;;;;;;;2213006;58;2036;-17
2023/12/07 14:18:05;;;;;;;;;;;;;;;;;;2214784;58;2110;-17
2023/12/07 14:20:36;;;;;;;;;;;;;;;;;;2214824;58;2659;-17
2023/12/07 14:23:07;;;;;;;;;;;;;;;;;;2215227;66;2026;-17
2023/12/07 14:25:40;;;;;;;;;;;;;;;;;;2213937;59;2016;-17
2023/12/07 14:28:10;;;;;;;;;;;;;;;;;;2216241;59;2023;-18
2023/12/07 14:30:40;;;;;;;;;;;;;;;;;;2214936;58;2573;-17
2023/12/07 14:33:11;;;;;;;;;;;;;;;;;;2215411;59;2427;-18
2023/12/07 14:35:41;;;;;;;;;;;;;;;;;;2214684;58;1901;-17
2023/12/07 14:38:13;;;;;;;;;;;;;;;;;;2211203;59;2631;-17
2023/12/07 14:40:43;;;;;;;;;;;;;;;;;;2214330;58;2634;-17
2023/12/07 14:43:14;;;;;;;;;;;;;;;;;;2210869;58;3585;-17
2023/12/07 14:45:44;;;;;;;;;;;;;;;;;;2213667;59;2213;-17
2023/12/07 14:48:14;;;;;;;;;;;;;;;;;;2211300;58;3341;-17
2023/12/07 14:50:44;;;;;;;;;;;;;;;;;;2213004;58;3225;-17
2023/12/07 14:53:15;;;;;;;;;;;;;;;;;;2214289;58;3054;-17
2023/12/07 14:55:45;;;;;;;;;;;;;;;;;;2212582;58;2423;-17
2023/12/07 14:58:16;;;;;;;;;;;;;;;;;;2217212;66;1759;-17
2023/12/07 15:00:46;;;;;;;;;;;;;;;;;;2214118;58;2224;-17
2023/12/07 15:03:18;;;;;;;;;;;;;;;;;;2214655;58;2606;-17
2023/12/07 15:05:48;;;;;;;;;;;;;;;;;;2213113;66;2286;-17
2023/12/07 15:08:18;;;;;;;;;;;;;;;;;;2213625;58;2523;-17
2023/12/07 15:10:52;;;;;;;;;;;;;;;;;;2213016;58;2771;-17
2023/12/07 15:13:22;;;;;;;;;;;;;;;;;;2214441;58;3979;-17
2023/12/07 15:15:53;;;;;;;;;;;;;;;;;;2214450;58;2107;-17
2023/12/07 15:18:23;;;;;;;;;;;;;;;;;;2213381;66;2137;-17
2023/12/07 15:20:53;;;;;;;;;;;;;;;;;;2216696;66;2107;-17
2023/12/07 15:23:24;;;;;;;;;;;;;;;;;;2214157;66;1984;-17
2023/12/07 15:25:54;;;;;;;;;;;;;;;;;;2215067;58;2409;-17
2023/12/07 15:28:24;;;;;;;;;;;;;;;;;;2213270;58;2570;-17
2023/12/07 15:30:55;;;;;;;;;;;;;;;;;;2214593;58;2410;-17
2023/12/07 15:33:25;;;;;;;;;;;;;;;;;;2214722;58;1868;-17
2023/12/07 15:35:56;;;;;;;;;;;;;;;;;;2214997;59;1732;-17
2023/12/07 15:38:26;;;;;;;;;;;;;;;;;;2214564;58;2422;-17
2023/12/07 15:40:58;;;;;;;;;;;;;;;;;;2214660;59;2279;-17
2023/12/07 15:43:30;;;;;;;;;;;;;;;;;;2213286;58;2273;-17
2023/12/07 15:46:00;;;;;;;;;;;;;;;;;;2213814;66;2186;-17
2023/12/07 15:48:30;;;;;;;;;;;;;;;;;;2214083;66;2123;-17
2023/12/07 15:51:00;;;;;;;;;;;;;;;;;;2214884;66;2126;-17
2023/12/07 15:53:31;;;;;;;;;;;;;;;;;;2212850;66;2587;-17
2023/12/07 15:56:01;;;;;;;;;;;;;;;;;;2210552;59;2203;-16
2023/12/07 15:58:31;;;;;;;;;;;;;;;;;;2210236;58;3535;-16
2023/12/07 16:01:02;;;;;;;;;;;;;;;;;;2214179;58;1794;-17
2023/12/07 16:03:35;;;;;;;;;;;;;;;;;;2212488;59;2515;-16
2023/12/07 16:06:05;;;;;;;;;;;;;;;;;;2214684;58;1992;-17
2023/12/07 16:08:35;;;;;;;;;;;;;;;;;;2213905;58;2261;-17
2023/12/07 16:11:06;;;;;;;;;;;;;;;;;;2217449;58;1957;-17
2023/12/07 16:13:36;;;;;;;;;;;;;;;;;;2212999;66;2161;-16
2023/12/07 16:16:07;;;;;;;;;;;;;;;;;;2216719;58;2093;-17
2023/12/07 16:18:37;;;;;;;;;;;;;;;;;;2213094;59;2225;-17
2023/12/07 16:21:07;;;;;;;;;;;;;;;;;;2213490;66;2138;-17
2023/12/07 16:23:37;;;;;;;;;;;;;;;;;;2213707;66;2217;-17
2023/12/07 16:26:08;;;;;;;;;;;;;;;;;;2214117;66;2384;-16
2023/12/07 16:28:38;;;;;;;;;;;;;;;;;;2213388;58;2362;-18
2023/12/07 16:31:08;;;;;;;;;;;;;;;;;;2214377;59;2568;-16
2023/12/07 16:33:38;;;;;;;;;;;;;;;;;;2214014;59;1836;-17
2023/12/07 16:36:14;;;;;;;;;;;;;;;;;;2215304;63;2095;-16
2023/12/07 16:38:44;;;;;;;;;;;;;;;;;;2213327;59;2084;-16
2023/12/07 16:41:17;;;;;;;;;;;;;;;;;;2214436;66;1818;-18
2023/12/07 16:43:47;;;;;;;;;;;;;;;;;;2213394;59;1957;-18
2023/12/07 16:46:17;;;;;;;;;;;;;;;;;;2214721;58;2789;-18
2023/12/07 16:48:48;;;;;;;;;;;;;;;;;;2212123;59;2613;-18
2023/12/07 16:51:18;;;;;;;;;;;;;;;;;;2214859;66;1859;-18
2023/12/07 16:53:48;;;;;;;;;;;;;;;;;;2214020;66;2358;-18
2023/12/07 16:56:18;;;;;;;;;;;;;;;;;;2213233;63;3258;-18
2023/12/07 16:58:49;;;;;;;;;;;;;;;;;;2212559;58;2701;-18
2023/12/07 17:01:19;;;;;;;;;;;;;;;;;;2214221;58;3338;-18
2023/12/07 17:03:50;;;;;;;;;;;;;;;;;;2213791;58;2505;-18
2023/12/07 17:06:20;;;;;;;;;;;;;;;;;;2216596;58;1864;-18
2023/12/07 17:08:53;;;;;;;;;;;;;;;;;;2214962;58;2384;-18
2023/12/07 17:11:23;;;;;;;;;;;;;;;;;;2215902;58;1874;-18
2023/12/07 17:16:36;;;;;;;;;;;;;;;;;;2195780;58;2454;-24
2023/12/07 17:19:07;;;;;;;;;;;;;;;;;;2198919;59;2167;-24
2023/12/07 17:21:37;;;;;;;;;;;;;;;;;;2197215;59;2083;-24
2023/12/07 17:24:08;;;;;;;;;;;;;;;;;;2200681;58;1952;-24
2023/12/07 17:26:41;;;;;;;;;;;;;;;;;;2196166;59;1865;-23
2023/12/07 17:29:12;;;;;;;;;;;;;;;;;;2199970;59;2261;-24
2023/12/07 17:31:44;;;;;;;;;;;;;;;;;;2197543;59;1925;-24